Britney Lee — WDC2895 — position and weather

sailwx.info

Track history (hours):
 
Tides and Currents Weather Stations Pressure Air Temp Water Temp Dewpoint Dewpoint Depression Visibility Wind Speed Wind Dir Waves Ship Positions

Britney Lee

Owner: Western Rivers Boat Management, Inc., Paducah, KY. More information available from US FCC via Universal Licensing System and Coast Guard Vessel Documentation Center.

Last reported at 2017-Jul-21 23:11 UTC. Time now 2017-Jul-22 08:46 UTC.
Position N 40°39' W 091°11'.

Length 44 m; draft 3 m.

Type: Tow > 200 m length. MMSI: 367129650.

Date/timePositionNaut miles runAvg speedWind from/ knotsBaromVisibWave heightAir tempDewpointWater temp
2017-Jul-21 23:11N 40°39' W 091°11'5 4.9
2017-Jul-21 22:04N 40°43' W 091°07'0 5.3
2017-Jul-21 21:59N 40°43' W 091°07'3 5.3
2017-Jul-21 21:30N 40°46' W 091°06'3 5.6
2017-Jul-21 21:00N 40°48' W 091°06'3 5.1
2017-Jul-21 20:30N 40°50' W 091°04'3 5.5
2017-Jul-21 20:00N 40°53' W 091°02'0 0.8
2017-Jul-21 19:30N 40°53' W 091°01'0 0.2
2017-Jul-21 19:00N 40°53' W 091°01'0 0.2
2017-Jul-21 18:30N 40°53' W 091°01'1 2.5
2017-Jul-21 18:00N 40°54' W 091°00'2 5.0
2017-Jul-21 17:30N 40°56' W 090°58'3 5.6
2017-Jul-21 17:00N 40°58' W 090°57'3 5.5
2017-Jul-21 16:30N 41°01' W 090°57'3 5.7
2017-Jul-21 15:55N 41°04' W 090°57'6 1.7
2017-Jul-21 12:13N 41°10' W 091°01'14 1.6
2017-Jul-21 03:59N 41°23' W 091°03'0 0.0
2017-Jul-21 03:22N 41°23' W 091°03'0 0.0
2017-Jul-21 03:00N 41°23' W 091°03'  
Track history (hours):
 
Tides and Currents Weather Stations Pressure Air Temp Water Temp Dewpoint Dewpoint Depression Visibility Wind Speed Wind Dir Waves Ship Positions

Britney Lee

Owner: Western Rivers Boat Management, Inc., Paducah, KY. More information available from US FCC via Universal Licensing System and Coast Guard Vessel Documentation Center.

Last reported at 2017-Jul-21 23:11 UTC. Time now 2017-Jul-22 08:46 UTC.
Position N 40°39' W 091°11'.

Length 44 m; draft 3 m.

Type: Tow > 200 m length. MMSI: 367129650.

Date/timePositionNaut miles runAvg speedWind from/ knotsBaromVisibWave heightAir tempDewpointWater temp
2017-Jul-21 23:11N 40°39' W 091°11'5 4.9
2017-Jul-21 22:04N 40°43' W 091°07'0 5.3
2017-Jul-21 21:59N 40°43' W 091°07'3 5.3
2017-Jul-21 21:30N 40°46' W 091°06'3 5.6
2017-Jul-21 21:00N 40°48' W 091°06'3 5.1
2017-Jul-21 20:30N 40°50' W 091°04'3 5.5
2017-Jul-21 20:00N 40°53' W 091°02'0 0.8
2017-Jul-21 19:30N 40°53' W 091°01'0 0.2
2017-Jul-21 19:00N 40°53' W 091°01'0 0.2
2017-Jul-21 18:30N 40°53' W 091°01'1 2.5
2017-Jul-21 18:00N 40°54' W 091°00'2 5.0
2017-Jul-21 17:30N 40°56' W 090°58'3 5.6
2017-Jul-21 17:00N 40°58' W 090°57'3 5.5
2017-Jul-21 16:30N 41°01' W 090°57'3 5.7
2017-Jul-21 15:55N 41°04' W 090°57'6 1.7
2017-Jul-21 12:13N 41°10' W 091°01'14 1.6
2017-Jul-21 03:59N 41°23' W 091°03'0 0.0
2017-Jul-21 03:22N 41°23' W 091°03'0 0.0
2017-Jul-21 03:00N 41°23' W 091°03'  

Dump ship's entire track history